sensor_id;sensor_type;location;lat;lon;timestamp;P1;durP1;ratioP1;P2;durP2;ratioP2
38865;SDS011;62686;48.984;8.394;2024-01-30T00:01:30;16.88;;;7.65;;
38865;SDS011;62686;48.984;8.394;2024-01-30T00:04:01;15.25;;;7.65;;
38865;SDS011;62686;48.984;8.394;2024-01-30T00:06:32;18.10;;;7.57;;
38865;SDS011;62686;48.984;8.394;2024-01-30T00:09:01;20.30;;;7.47;;
38865;SDS011;62686;48.984;8.394;2024-01-30T00:11:34;13.07;;;7.30;;
38865;SDS011;62686;48.984;8.394;2024-01-30T00:14:07;15.63;;;7.30;;
38865;SDS011;62686;48.984;8.394;2024-01-30T00:16:36;12.77;;;6.47;;
38865;SDS011;62686;48.984;8.394;2024-01-30T00:19:05;14.43;;;7.53;;
38865;SDS011;62686;48.984;8.394;2024-01-30T00:21:39;15.73;;;6.90;;
38865;SDS011;62686;48.984;8.394;2024-01-30T00:24:08;14.43;;;6.88;;
38865;SDS011;62686;48.984;8.394;2024-01-30T00:26:36;14.13;;;7.05;;
38865;SDS011;62686;48.984;8.394;2024-01-30T00:29:05;13.90;;;6.43;;
38865;SDS011;62686;48.984;8.394;2024-01-30T00:31:33;12.23;;;6.25;;
38865;SDS011;62686;48.984;8.394;2024-01-30T00:34:04;12.82;;;6.00;;
38865;SDS011;62686;48.984;8.394;2024-01-30T00:41:58;16.27;;;6.93;;
38865;SDS011;62686;48.984;8.394;2024-01-30T00:44:26;14.90;;;7.20;;
38865;SDS011;62686;48.984;8.394;2024-01-30T01:00:20;14.07;;;6.85;;
38865;SDS011;62686;48.984;8.394;2024-01-30T01:10:55;16.67;;;7.20;;
38865;SDS011;62686;48.984;8.394;2024-01-30T01:46:11;14.73;;;7.05;;
38865;SDS011;62686;48.984;8.394;2024-01-30T01:48:42;15.93;;;7.13;;
38865;SDS011;62686;48.984;8.394;2024-01-30T01:51:11;14.75;;;6.72;;
38865;SDS011;62686;48.984;8.394;2024-01-30T01:53:40;14.90;;;7.70;;
38865;SDS011;62686;48.984;8.394;2024-01-30T01:56:09;13.45;;;7.47;;
38865;SDS011;62686;48.984;8.394;2024-01-30T01:58:38;12.48;;;6.75;;
38865;SDS011;62686;48.984;8.394;2024-01-30T02:01:17;15.50;;;7.00;;
38865;SDS011;62686;48.984;8.394;2024-01-30T02:03:47;22.05;;;8.15;;
38865;SDS011;62686;48.984;8.394;2024-01-30T02:06:16;14.98;;;7.88;;
38865;SDS011;62686;48.984;8.394;2024-01-30T02:08:45;15.05;;;6.88;;
38865;SDS011;62686;48.984;8.394;2024-01-30T02:11:14;15.97;;;8.30;;
38865;SDS011;62686;48.984;8.394;2024-01-30T02:13:43;12.35;;;6.65;;
38865;SDS011;62686;48.984;8.394;2024-01-30T02:16:11;14.80;;;7.25;;
38865;SDS011;62686;48.984;8.394;2024-01-30T02:18:42;12.52;;;7.28;;
38865;SDS011;62686;48.984;8.394;2024-01-30T02:21:15;15.75;;;7.68;;
38865;SDS011;62686;48.984;8.394;2024-01-30T02:23:44;13.73;;;6.88;;
38865;SDS011;62686;48.984;8.394;2024-01-30T02:26:15;17.25;;;6.70;;
38865;SDS011;62686;48.984;8.394;2024-01-30T03:01:44;14.18;;;6.63;;
38865;SDS011;62686;48.984;8.394;2024-01-30T03:07:10;11.52;;;6.25;;
38865;SDS011;62686;48.984;8.394;2024-01-30T03:09:38;14.37;;;6.43;;
38865;SDS011;62686;48.984;8.394;2024-01-30T03:17:35;15.50;;;6.60;;
38865;SDS011;62686;48.984;8.394;2024-01-30T03:23:02;14.35;;;6.13;;
38865;SDS011;62686;48.984;8.394;2024-01-30T03:25:31;17.23;;;7.88;;
38865;SDS011;62686;48.984;8.394;2024-01-30T03:27:59;13.57;;;7.00;;
38865;SDS011;62686;48.984;8.394;2024-01-30T03:30:28;14.33;;;7.33;;
38865;SDS011;62686;48.984;8.394;2024-01-30T03:35:34;14.02;;;7.47;;
38865;SDS011;62686;48.984;8.394;2024-01-30T03:38:02;16.35;;;7.47;;
38865;SDS011;62686;48.984;8.394;2024-01-30T03:40:31;13.30;;;7.03;;
38865;SDS011;62686;48.984;8.394;2024-01-30T03:43:01;12.60;;;6.25;;
38865;SDS011;62686;48.984;8.394;2024-01-30T03:45:29;13.50;;;6.60;;
38865;SDS011;62686;48.984;8.394;2024-01-30T03:47:58;16.17;;;6.47;;
38865;SDS011;62686;48.984;8.394;2024-01-30T03:50:26;15.70;;;6.57;;
38865;SDS011;62686;48.984;8.394;2024-01-30T03:52:56;15.30;;;7.18;;
38865;SDS011;62686;48.984;8.394;2024-01-30T03:55:25;13.93;;;6.35;;
38865;SDS011;62686;48.984;8.394;2024-01-30T03:57:54;13.77;;;7.47;;
38865;SDS011;62686;48.984;8.394;2024-01-30T04:00:23;13.60;;;6.68;;
38865;SDS011;62686;48.984;8.394;2024-01-30T04:02:52;14.43;;;6.80;;
38865;SDS011;62686;48.984;8.394;2024-01-30T04:05:20;15.63;;;7.07;;
38865;SDS011;62686;48.984;8.394;2024-01-30T05:30:26;14.98;;;5.90;;
38865;SDS011;62686;48.984;8.394;2024-01-30T05:32:55;12.32;;;5.97;;
38865;SDS011;62686;48.984;8.394;2024-01-30T05:35:24;14.52;;;6.65;;
38865;SDS011;62686;48.984;8.394;2024-01-30T05:37:52;16.33;;;6.50;;
38865;SDS011;62686;48.984;8.394;2024-01-30T05:40:21;17.77;;;6.82;;
38865;SDS011;62686;48.984;8.394;2024-01-30T05:53:31;15.88;;;6.90;;
38865;SDS011;62686;48.984;8.394;2024-01-30T05:56:01;13.10;;;6.80;;
38865;SDS011;62686;48.984;8.394;2024-01-30T05:58:30;15.85;;;6.57;;
38865;SDS011;62686;48.984;8.394;2024-01-30T06:00:59;17.70;;;6.80;;
38865;SDS011;62686;48.984;8.394;2024-01-30T06:03:28;15.20;;;7.28;;
38865;SDS011;62686;48.984;8.394;2024-01-30T06:05:56;13.97;;;6.77;;
38865;SDS011;62686;48.984;8.394;2024-01-30T06:08:25;13.82;;;6.57;;
38865;SDS011;62686;48.984;8.394;2024-01-30T06:10:55;11.95;;;5.72;;
38865;SDS011;62686;48.984;8.394;2024-01-30T06:13:23;13.23;;;6.90;;
38865;SDS011;62686;48.984;8.394;2024-01-30T06:15:52;16.75;;;7.00;;
38865;SDS011;62686;48.984;8.394;2024-01-30T06:18:21;19.08;;;7.78;;
38865;SDS011;62686;48.984;8.394;2024-01-30T06:20:49;16.42;;;6.90;;
38865;SDS011;62686;48.984;8.394;2024-01-30T06:23:20;13.60;;;6.60;;
38865;SDS011;62686;48.984;8.394;2024-01-30T07:00:49;18.77;;;6.80;;
38865;SDS011;62686;48.984;8.394;2024-01-30T07:03:19;15.90;;;7.20;;
38865;SDS011;62686;48.984;8.394;2024-01-30T07:08:30;13.38;;;7.32;;
38865;SDS011;62686;48.984;8.394;2024-01-30T07:19:06;14.07;;;7.93;;
38865;SDS011;62686;48.984;8.394;2024-01-30T07:21:37;18.70;;;8.20;;
38865;SDS011;62686;48.984;8.394;2024-01-30T07:24:07;17.15;;;8.55;;
38865;SDS011;62686;48.984;8.394;2024-01-30T07:26:35;14.30;;;7.88;;
38865;SDS011;62686;48.984;8.394;2024-01-30T07:29:04;15.45;;;7.97;;
38865;SDS011;62686;48.984;8.394;2024-01-30T07:31:32;14.33;;;7.97;;
38865;SDS011;62686;48.984;8.394;2024-01-30T07:40:09;14.68;;;8.02;;
38865;SDS011;62686;48.984;8.394;2024-01-30T07:42:38;16.55;;;8.27;;
38865;SDS011;62686;48.984;8.394;2024-01-30T07:45:07;17.00;;;7.72;;
38865;SDS011;62686;48.984;8.394;2024-01-30T07:47:36;15.48;;;7.35;;
38865;SDS011;62686;48.984;8.394;2024-01-30T07:50:06;17.73;;;8.30;;
38865;SDS011;62686;48.984;8.394;2024-01-30T07:52:35;23.25;;;8.35;;
38865;SDS011;62686;48.984;8.394;2024-01-30T07:55:06;21.30;;;9.05;;
38865;SDS011;62686;48.984;8.394;2024-01-30T08:47:11;18.48;;;10.43;;
38865;SDS011;62686;48.984;8.394;2024-01-30T08:49:40;26.15;;;13.50;;
38865;SDS011;62686;48.984;8.394;2024-01-30T08:52:10;26.45;;;13.85;;
38865;SDS011;62686;48.984;8.394;2024-01-30T08:54:39;23.43;;;12.67;;
38865;SDS011;62686;48.984;8.394;2024-01-30T08:57:07;19.55;;;11.13;;
38865;SDS011;62686;48.984;8.394;2024-01-30T08:59:36;20.45;;;11.50;;
38865;SDS011;62686;48.984;8.394;2024-01-30T09:02:06;19.90;;;11.82;;
38865;SDS011;62686;48.984;8.394;2024-01-30T09:04:37;24.42;;;12.85;;
38865;SDS011;62686;48.984;8.394;2024-01-30T09:07:06;23.10;;;11.37;;
38865;SDS011;62686;48.984;8.394;2024-01-30T09:09:37;23.05;;;11.40;;
38865;SDS011;62686;48.984;8.394;2024-01-30T09:12:07;23.90;;;12.98;;
38865;SDS011;62686;48.984;8.394;2024-01-30T09:14:38;23.83;;;12.13;;
38865;SDS011;62686;48.984;8.394;2024-01-30T09:17:07;28.92;;;13.25;;
38865;SDS011;62686;48.984;8.394;2024-01-30T09:19:37;21.98;;;11.85;;
38865;SDS011;62686;48.984;8.394;2024-01-30T09:22:06;24.40;;;13.60;;
38865;SDS011;62686;48.984;8.394;2024-01-30T09:24:35;23.83;;;12.43;;
38865;SDS011;62686;48.984;8.394;2024-01-30T09:27:04;22.48;;;12.48;;
38865;SDS011;62686;48.984;8.394;2024-01-30T09:29:32;24.43;;;13.40;;
38865;SDS011;62686;48.984;8.394;2024-01-30T09:32:03;25.63;;;14.52;;
38865;SDS011;62686;48.984;8.394;2024-01-30T09:34:35;21.13;;;12.85;;
38865;SDS011;62686;48.984;8.394;2024-01-30T09:37:07;22.90;;;12.15;;
38865;SDS011;62686;48.984;8.394;2024-01-30T09:39:42;20.45;;;11.75;;
38865;SDS011;62686;48.984;8.394;2024-01-30T09:42:33;21.17;;;11.03;;
38865;SDS011;62686;48.984;8.394;2024-01-30T09:45:30;16.63;;;10.45;;
38865;SDS011;62686;48.984;8.394;2024-01-30T09:48:20;18.35;;;9.45;;
38865;SDS011;62686;48.984;8.394;2024-01-30T09:50:51;20.77;;;11.23;;
38865;SDS011;62686;48.984;8.394;2024-01-30T09:53:20;14.43;;;9.13;;
38865;SDS011;62686;48.984;8.394;2024-01-30T09:55:52;19.63;;;9.67;;
38865;SDS011;62686;48.984;8.394;2024-01-30T09:58:20;17.13;;;9.85;;
38865;SDS011;62686;48.984;8.394;2024-01-30T10:00:49;21.23;;;11.95;;
38865;SDS011;62686;48.984;8.394;2024-01-30T10:03:18;19.05;;;10.85;;
38865;SDS011;62686;48.984;8.394;2024-01-30T10:05:47;20.73;;;12.88;;
38865;SDS011;62686;48.984;8.394;2024-01-30T10:08:20;19.73;;;10.77;;
38865;SDS011;62686;48.984;8.394;2024-01-30T10:10:49;20.67;;;12.23;;
38865;SDS011;62686;48.984;8.394;2024-01-30T10:13:18;21.33;;;10.95;;
38865;SDS011;62686;48.984;8.394;2024-01-30T10:15:47;25.05;;;12.98;;
38865;SDS011;62686;48.984;8.394;2024-01-30T10:18:16;26.52;;;13.43;;
38865;SDS011;62686;48.984;8.394;2024-01-30T10:20:45;26.47;;;13.07;;
38865;SDS011;62686;48.984;8.394;2024-01-30T10:23:16;24.73;;;12.75;;
38865;SDS011;62686;48.984;8.394;2024-01-30T10:25:45;17.75;;;11.05;;
38865;SDS011;62686;48.984;8.394;2024-01-30T10:28:14;22.48;;;12.38;;
38865;SDS011;62686;48.984;8.394;2024-01-30T10:30:42;19.88;;;11.50;;
38865;SDS011;62686;48.984;8.394;2024-01-30T10:33:11;20.07;;;11.50;;
38865;SDS011;62686;48.984;8.394;2024-01-30T10:35:39;20.83;;;11.52;;
38865;SDS011;62686;48.984;8.394;2024-01-30T10:38:08;24.50;;;12.65;;
38865;SDS011;62686;48.984;8.394;2024-01-30T10:40:44;25.25;;;12.85;;
38865;SDS011;62686;48.984;8.394;2024-01-30T10:43:15;27.83;;;11.30;;
38865;SDS011;62686;48.984;8.394;2024-01-30T10:45:52;29.53;;;11.07;;
38865;SDS011;62686;48.984;8.394;2024-01-30T10:48:25;21.67;;;11.20;;
38865;SDS011;62686;48.984;8.394;2024-01-30T10:50:58;18.98;;;10.73;;
38865;SDS011;62686;48.984;8.394;2024-01-30T10:53:31;18.67;;;9.85;;
38865;SDS011;62686;48.984;8.394;2024-01-30T10:56:01;17.02;;;10.55;;
38865;SDS011;62686;48.984;8.394;2024-01-30T10:58:32;19.00;;;9.27;;
38865;SDS011;62686;48.984;8.394;2024-01-30T11:01:03;16.77;;;10.05;;
38865;SDS011;62686;48.984;8.394;2024-01-30T11:03:33;17.38;;;9.65;;
38865;SDS011;62686;48.984;8.394;2024-01-30T11:06:04;14.95;;;8.75;;
38865;SDS011;62686;48.984;8.394;2024-01-30T11:08:34;17.38;;;8.63;;
38865;SDS011;62686;48.984;8.394;2024-01-30T11:11:03;14.43;;;9.10;;
38865;SDS011;62686;48.984;8.394;2024-01-30T11:13:39;13.77;;;8.10;;
38865;SDS011;62686;48.984;8.394;2024-01-30T11:16:09;16.88;;;9.48;;
38865;SDS011;62686;48.984;8.394;2024-01-30T11:21:24;13.00;;;8.07;;
38865;SDS011;62686;48.984;8.394;2024-01-30T12:26:03;15.85;;;9.27;;
38865;SDS011;62686;48.984;8.394;2024-01-30T12:28:48;13.32;;;8.48;;
38865;SDS011;62686;48.984;8.394;2024-01-30T12:31:24;14.00;;;8.60;;
38865;SDS011;62686;48.984;8.394;2024-01-30T12:33:55;13.37;;;8.70;;
38865;SDS011;62686;48.984;8.394;2024-01-30T12:36:50;13.82;;;8.13;;
38865;SDS011;62686;48.984;8.394;2024-01-30T12:39:29;17.58;;;8.48;;
38865;SDS011;62686;48.984;8.394;2024-01-30T12:42:00;15.60;;;9.35;;
38865;SDS011;62686;48.984;8.394;2024-01-30T12:44:32;15.30;;;9.90;;
38865;SDS011;62686;48.984;8.394;2024-01-30T12:47:02;17.50;;;9.77;;
38865;SDS011;62686;48.984;8.394;2024-01-30T12:49:31;20.42;;;11.50;;
38865;SDS011;62686;48.984;8.394;2024-01-30T12:52:02;16.75;;;10.90;;
38865;SDS011;62686;48.984;8.394;2024-01-30T12:54:49;16.83;;;11.15;;
38865;SDS011;62686;48.984;8.394;2024-01-30T12:57:22;18.73;;;11.85;;
38865;SDS011;62686;48.984;8.394;2024-01-30T12:59:54;19.67;;;12.40;;
38865;SDS011;62686;48.984;8.394;2024-01-30T13:02:28;22.17;;;13.35;;
38865;SDS011;62686;48.984;8.394;2024-01-30T13:05:04;18.88;;;12.05;;
38865;SDS011;62686;48.984;8.394;2024-01-30T13:07:37;21.67;;;12.32;;
38865;SDS011;62686;48.984;8.394;2024-01-30T13:10:06;20.15;;;11.95;;
38865;SDS011;62686;48.984;8.394;2024-01-30T13:12:36;20.70;;;12.43;;
38865;SDS011;62686;48.984;8.394;2024-01-30T13:15:05;18.27;;;11.55;;
38865;SDS011;62686;48.984;8.394;2024-01-30T13:17:35;19.65;;;11.10;;
38865;SDS011;62686;48.984;8.394;2024-01-30T13:20:04;18.83;;;10.75;;
38865;SDS011;62686;48.984;8.394;2024-01-30T13:22:35;17.25;;;11.00;;
38865;SDS011;62686;48.984;8.394;2024-01-30T13:25:05;17.53;;;10.23;;
38865;SDS011;62686;48.984;8.394;2024-01-30T13:27:34;16.60;;;10.15;;
38865;SDS011;62686;48.984;8.394;2024-01-30T13:30:06;19.88;;;10.23;;
38865;SDS011;62686;48.984;8.394;2024-01-30T13:32:36;19.02;;;10.65;;
38865;SDS011;62686;48.984;8.394;2024-01-30T13:35:05;16.70;;;10.35;;
38865;SDS011;62686;48.984;8.394;2024-01-30T13:37:33;15.47;;;9.80;;
38865;SDS011;62686;48.984;8.394;2024-01-30T13:48:09;15.57;;;10.82;;
38865;SDS011;62686;48.984;8.394;2024-01-30T13:50:40;15.90;;;10.23;;
38865;SDS011;62686;48.984;8.394;2024-01-30T13:53:09;16.13;;;10.20;;
38865;SDS011;62686;48.984;8.394;2024-01-30T13:55:38;19.95;;;10.10;;
38865;SDS011;62686;48.984;8.394;2024-01-30T13:58:06;18.27;;;9.90;;
38865;SDS011;62686;48.984;8.394;2024-01-30T14:00:35;17.73;;;10.00;;
38865;SDS011;62686;48.984;8.394;2024-01-30T14:03:04;17.53;;;10.43;;
38865;SDS011;62686;48.984;8.394;2024-01-30T14:05:35;15.13;;;9.43;;
38865;SDS011;62686;48.984;8.394;2024-01-30T14:08:03;16.45;;;9.80;;
38865;SDS011;62686;48.984;8.394;2024-01-30T14:10:34;14.35;;;9.15;;
38865;SDS011;62686;48.984;8.394;2024-01-30T14:13:02;15.98;;;10.15;;
38865;SDS011;62686;48.984;8.394;2024-01-30T14:15:31;15.70;;;9.27;;
38865;SDS011;62686;48.984;8.394;2024-01-30T14:18:00;16.98;;;9.05;;
38865;SDS011;62686;48.984;8.394;2024-01-30T14:20:28;14.48;;;8.68;;
38865;SDS011;62686;48.984;8.394;2024-01-30T14:22:59;13.93;;;9.23;;
38865;SDS011;62686;48.984;8.394;2024-01-30T14:25:28;16.95;;;8.40;;
38865;SDS011;62686;48.984;8.394;2024-01-30T14:27:57;14.13;;;8.93;;
38865;SDS011;62686;48.984;8.394;2024-01-30T14:30:26;16.30;;;9.32;;
38865;SDS011;62686;48.984;8.394;2024-01-30T14:32:54;14.95;;;8.50;;
38865;SDS011;62686;48.984;8.394;2024-01-30T14:35:25;17.67;;;8.95;;
38865;SDS011;62686;48.984;8.394;2024-01-30T14:37:53;14.82;;;8.88;;
38865;SDS011;62686;48.984;8.394;2024-01-30T14:40:24;12.57;;;8.47;;
38865;SDS011;62686;48.984;8.394;2024-01-30T14:42:53;14.07;;;8.48;;
38865;SDS011;62686;48.984;8.394;2024-01-30T14:45:21;14.35;;;8.65;;
38865;SDS011;62686;48.984;8.394;2024-01-30T14:47:51;14.85;;;7.95;;
38865;SDS011;62686;48.984;8.394;2024-01-30T14:50:22;15.38;;;8.40;;
38865;SDS011;62686;48.984;8.394;2024-01-30T14:52:50;14.87;;;9.07;;
38865;SDS011;62686;48.984;8.394;2024-01-30T14:55:19;10.77;;;7.47;;
38865;SDS011;62686;48.984;8.394;2024-01-30T14:57:49;14.10;;;8.15;;
38865;SDS011;62686;48.984;8.394;2024-01-30T15:00:18;11.95;;;8.13;;
38865;SDS011;62686;48.984;8.394;2024-01-30T15:02:47;12.55;;;7.55;;
38865;SDS011;62686;48.984;8.394;2024-01-30T15:05:15;11.70;;;7.33;;
38865;SDS011;62686;48.984;8.394;2024-01-30T15:07:44;12.48;;;7.55;;
38865;SDS011;62686;48.984;8.394;2024-01-30T15:10:12;13.52;;;7.72;;
38865;SDS011;62686;48.984;8.394;2024-01-30T15:12:41;13.50;;;8.02;;
38865;SDS011;62686;48.984;8.394;2024-01-30T15:15:12;13.85;;;7.68;;
38865;SDS011;62686;48.984;8.394;2024-01-30T15:17:41;12.17;;;7.43;;
38865;SDS011;62686;48.984;8.394;2024-01-30T15:20:10;13.40;;;7.72;;
38865;SDS011;62686;48.984;8.394;2024-01-30T15:22:38;14.20;;;8.10;;
38865;SDS011;62686;48.984;8.394;2024-01-30T15:25:07;12.70;;;8.13;;
38865;SDS011;62686;48.984;8.394;2024-01-30T15:27:35;10.23;;;7.40;;
38865;SDS011;62686;48.984;8.394;2024-01-30T15:30:04;12.93;;;7.57;;
38865;SDS011;62686;48.984;8.394;2024-01-30T15:32:35;11.80;;;7.18;;
38865;SDS011;62686;48.984;8.394;2024-01-30T15:35:05;11.25;;;6.78;;
38865;SDS011;62686;48.984;8.394;2024-01-30T15:37:34;10.73;;;7.25;;
38865;SDS011;62686;48.984;8.394;2024-01-30T15:40:03;12.93;;;7.40;;
38865;SDS011;62686;48.984;8.394;2024-01-30T15:42:35;14.03;;;7.90;;
38865;SDS011;62686;48.984;8.394;2024-01-30T15:45:03;13.35;;;7.65;;
38865;SDS011;62686;48.984;8.394;2024-01-30T15:47:32;11.18;;;6.93;;
38865;SDS011;62686;48.984;8.394;2024-01-30T15:50:03;11.68;;;6.47;;
38865;SDS011;62686;48.984;8.394;2024-01-30T15:52:32;13.20;;;7.93;;
38865;SDS011;62686;48.984;8.394;2024-01-30T15:55:00;12.07;;;6.87;;
38865;SDS011;62686;48.984;8.394;2024-01-30T15:57:29;11.60;;;6.60;;
38865;SDS011;62686;48.984;8.394;2024-01-30T15:59:58;12.50;;;7.28;;
38865;SDS011;62686;48.984;8.394;2024-01-30T16:02:26;13.15;;;7.35;;
38865;SDS011;62686;48.984;8.394;2024-01-30T16:04:55;12.23;;;8.15;;
38865;SDS011;62686;48.984;8.394;2024-01-30T16:07:25;11.53;;;7.27;;
38865;SDS011;62686;48.984;8.394;2024-01-30T16:09:54;12.02;;;7.65;;
38865;SDS011;62686;48.984;8.394;2024-01-30T16:12:22;15.15;;;8.00;;
38865;SDS011;62686;48.984;8.394;2024-01-30T16:14:50;12.07;;;7.60;;
38865;SDS011;62686;48.984;8.394;2024-01-30T16:17:19;12.35;;;7.75;;
38865;SDS011;62686;48.984;8.394;2024-01-30T16:19:51;15.63;;;8.30;;
38865;SDS011;62686;48.984;8.394;2024-01-30T16:22:22;14.10;;;7.75;;
38865;SDS011;62686;48.984;8.394;2024-01-30T16:24:58;16.65;;;7.88;;
38865;SDS011;62686;48.984;8.394;2024-01-30T16:27:32;14.00;;;7.35;;
38865;SDS011;62686;48.984;8.394;2024-01-30T16:30:02;15.80;;;8.95;;
38865;SDS011;62686;48.984;8.394;2024-01-30T16:32:37;18.80;;;9.50;;
38865;SDS011;62686;48.984;8.394;2024-01-30T16:35:07;15.30;;;8.95;;
38865;SDS011;62686;48.984;8.394;2024-01-30T16:37:41;16.70;;;8.60;;
38865;SDS011;62686;48.984;8.394;2024-01-30T16:40:14;16.50;;;9.10;;
38865;SDS011;62686;48.984;8.394;2024-01-30T16:42:43;18.70;;;9.60;;
38865;SDS011;62686;48.984;8.394;2024-01-30T16:45:11;16.77;;;8.80;;
38865;SDS011;62686;48.984;8.394;2024-01-30T16:47:40;14.63;;;8.52;;
38865;SDS011;62686;48.984;8.394;2024-01-30T16:50:09;19.63;;;9.77;;
38865;SDS011;62686;48.984;8.394;2024-01-30T16:52:39;20.75;;;9.70;;
38865;SDS011;62686;48.984;8.394;2024-01-30T16:55:08;19.27;;;10.43;;
38865;SDS011;62686;48.984;8.394;2024-01-30T16:57:36;19.33;;;10.43;;
38865;SDS011;62686;48.984;8.394;2024-01-30T17:00:05;16.70;;;9.70;;
38865;SDS011;62686;48.984;8.394;2024-01-30T17:02:35;22.70;;;10.73;;
38865;SDS011;62686;48.984;8.394;2024-01-30T17:05:04;24.25;;;11.10;;
38865;SDS011;62686;48.984;8.394;2024-01-30T17:07:36;19.17;;;10.10;;
38865;SDS011;62686;48.984;8.394;2024-01-30T17:55:54;36.10;;;13.63;;
38865;SDS011;62686;48.984;8.394;2024-01-30T17:58:22;29.00;;;12.77;;
38865;SDS011;62686;48.984;8.394;2024-01-30T18:00:51;19.10;;;10.25;;
38865;SDS011;62686;48.984;8.394;2024-01-30T18:03:19;20.27;;;10.97;;
38865;SDS011;62686;48.984;8.394;2024-01-30T18:05:48;25.00;;;11.60;;
38865;SDS011;62686;48.984;8.394;2024-01-30T18:08:17;25.70;;;13.02;;
38865;SDS011;62686;48.984;8.394;2024-01-30T18:10:46;25.35;;;12.38;;
38865;SDS011;62686;48.984;8.394;2024-01-30T18:13:17;25.35;;;13.23;;
38865;SDS011;62686;48.984;8.394;2024-01-30T18:15:45;25.67;;;13.60;;
38865;SDS011;62686;48.984;8.394;2024-01-30T18:18:14;23.23;;;12.10;;
38865;SDS011;62686;48.984;8.394;2024-01-30T18:20:44;23.40;;;11.70;;
38865;SDS011;62686;48.984;8.394;2024-01-30T18:23:12;20.27;;;10.40;;
38865;SDS011;62686;48.984;8.394;2024-01-30T18:25:41;25.92;;;12.48;;
38865;SDS011;62686;48.984;8.394;2024-01-30T18:28:09;21.07;;;11.27;;
38865;SDS011;62686;48.984;8.394;2024-01-30T18:30:39;20.23;;;11.57;;
38865;SDS011;62686;48.984;8.394;2024-01-30T18:33:07;23.67;;;11.93;;
38865;SDS011;62686;48.984;8.394;2024-01-30T18:35:36;23.23;;;12.25;;
38865;SDS011;62686;48.984;8.394;2024-01-30T18:38:05;23.00;;;12.70;;
38865;SDS011;62686;48.984;8.394;2024-01-30T18:40:33;25.13;;;12.73;;
38865;SDS011;62686;48.984;8.394;2024-01-30T18:43:02;21.55;;;12.73;;
38865;SDS011;62686;48.984;8.394;2024-01-30T18:45:33;24.83;;;13.88;;
38865;SDS011;62686;48.984;8.394;2024-01-30T18:48:03;25.58;;;13.35;;
38865;SDS011;62686;48.984;8.394;2024-01-30T18:50:31;21.77;;;12.98;;
38865;SDS011;62686;48.984;8.394;2024-01-30T18:53:00;25.37;;;12.63;;
38865;SDS011;62686;48.984;8.394;2024-01-30T18:55:29;21.33;;;12.65;;
38865;SDS011;62686;48.984;8.394;2024-01-30T18:57:57;27.00;;;12.68;;
38865;SDS011;62686;48.984;8.394;2024-01-30T19:00:26;21.13;;;12.07;;
38865;SDS011;62686;48.984;8.394;2024-01-30T19:02:55;22.33;;;11.73;;
38865;SDS011;62686;48.984;8.394;2024-01-30T19:05:25;27.27;;;13.13;;
38865;SDS011;62686;48.984;8.394;2024-01-30T19:07:53;26.95;;;14.60;;
38865;SDS011;62686;48.984;8.394;2024-01-30T19:10:22;27.00;;;14.23;;
38865;SDS011;62686;48.984;8.394;2024-01-30T19:12:51;28.25;;;13.95;;
38865;SDS011;62686;48.984;8.394;2024-01-30T19:15:19;27.20;;;13.93;;
38865;SDS011;62686;48.984;8.394;2024-01-30T19:17:48;24.33;;;13.13;;
38865;SDS011;62686;48.984;8.394;2024-01-30T19:20:17;25.00;;;12.77;;
38865;SDS011;62686;48.984;8.394;2024-01-30T19:22:50;22.48;;;12.65;;
38865;SDS011;62686;48.984;8.394;2024-01-30T19:25:18;25.85;;;12.25;;
38865;SDS011;62686;48.984;8.394;2024-01-30T19:27:47;24.13;;;12.32;;
38865;SDS011;62686;48.984;8.394;2024-01-30T19:30:16;24.67;;;12.30;;
38865;SDS011;62686;48.984;8.394;2024-01-30T19:32:44;24.20;;;12.18;;
38865;SDS011;62686;48.984;8.394;2024-01-30T19:35:13;29.77;;;13.95;;
38865;SDS011;62686;48.984;8.394;2024-01-30T19:37:42;22.50;;;12.27;;
38865;SDS011;62686;48.984;8.394;2024-01-30T19:40:12;20.92;;;11.15;;
38865;SDS011;62686;48.984;8.394;2024-01-30T19:42:41;23.23;;;12.33;;
38865;SDS011;62686;48.984;8.394;2024-01-30T19:45:10;20.20;;;11.07;;
38865;SDS011;62686;48.984;8.394;2024-01-30T19:47:39;21.50;;;12.02;;
38865;SDS011;62686;48.984;8.394;2024-01-30T19:50:08;20.88;;;11.45;;
38865;SDS011;62686;48.984;8.394;2024-01-30T19:52:37;23.88;;;12.20;;
38865;SDS011;62686;48.984;8.394;2024-01-30T19:55:06;17.47;;;10.63;;
38865;SDS011;62686;48.984;8.394;2024-01-30T19:57:40;22.38;;;11.93;;
38865;SDS011;62686;48.984;8.394;2024-01-30T20:00:09;23.10;;;11.98;;
38865;SDS011;62686;48.984;8.394;2024-01-30T20:02:39;19.65;;;11.32;;
38865;SDS011;62686;48.984;8.394;2024-01-30T20:05:08;24.65;;;12.80;;
38865;SDS011;62686;48.984;8.394;2024-01-30T20:07:37;22.40;;;11.57;;
38865;SDS011;62686;48.984;8.394;2024-01-30T20:10:06;21.77;;;10.75;;
38865;SDS011;62686;48.984;8.394;2024-01-30T20:12:36;20.25;;;10.75;;
38865;SDS011;62686;48.984;8.394;2024-01-30T20:15:06;24.55;;;11.75;;
38865;SDS011;62686;48.984;8.394;2024-01-30T20:17:38;22.73;;;12.07;;
38865;SDS011;62686;48.984;8.394;2024-01-30T20:20:08;21.77;;;11.70;;
38865;SDS011;62686;48.984;8.394;2024-01-30T20:22:37;21.70;;;11.88;;
38865;SDS011;62686;48.984;8.394;2024-01-30T20:25:06;25.27;;;12.23;;
38865;SDS011;62686;48.984;8.394;2024-01-30T20:27:36;23.50;;;12.02;;
38865;SDS011;62686;48.984;8.394;2024-01-30T20:30:07;22.13;;;12.52;;
38865;SDS011;62686;48.984;8.394;2024-01-30T20:32:38;23.60;;;12.53;;
38865;SDS011;62686;48.984;8.394;2024-01-30T20:35:08;22.27;;;12.43;;
38865;SDS011;62686;48.984;8.394;2024-01-30T20:37:37;23.58;;;12.02;;
38865;SDS011;62686;48.984;8.394;2024-01-30T20:40:06;24.52;;;12.23;;
38865;SDS011;62686;48.984;8.394;2024-01-30T20:42:35;23.70;;;12.55;;
38865;SDS011;62686;48.984;8.394;2024-01-30T20:45:06;19.87;;;11.93;;
38865;SDS011;62686;48.984;8.394;2024-01-30T20:47:36;24.05;;;11.73;;
38865;SDS011;62686;48.984;8.394;2024-01-30T20:50:06;22.27;;;12.25;;
38865;SDS011;62686;48.984;8.394;2024-01-30T20:52:36;27.73;;;13.50;;
38865;SDS011;62686;48.984;8.394;2024-01-30T20:55:04;20.60;;;11.65;;
38865;SDS011;62686;48.984;8.394;2024-01-30T20:57:34;24.23;;;12.23;;
38865;SDS011;62686;48.984;8.394;2024-01-30T21:00:04;20.60;;;10.82;;
38865;SDS011;62686;48.984;8.394;2024-01-30T21:02:36;22.35;;;12.02;;
38865;SDS011;62686;48.984;8.394;2024-01-30T21:05:05;20.77;;;12.27;;
38865;SDS011;62686;48.984;8.394;2024-01-30T21:07:35;22.05;;;11.43;;
38865;SDS011;62686;48.984;8.394;2024-01-30T21:10:04;22.07;;;11.63;;
38865;SDS011;62686;48.984;8.394;2024-01-30T21:12:34;23.65;;;12.80;;
38865;SDS011;62686;48.984;8.394;2024-01-30T21:15:06;23.63;;;12.68;;
38865;SDS011;62686;48.984;8.394;2024-01-30T21:17:43;24.40;;;13.73;;
38865;SDS011;62686;48.984;8.394;2024-01-30T21:20:21;19.85;;;12.13;;
38865;SDS011;62686;48.984;8.394;2024-01-30T21:22:54;21.80;;;12.13;;
38865;SDS011;62686;48.984;8.394;2024-01-30T21:25:26;20.23;;;11.23;;
38865;SDS011;62686;48.984;8.394;2024-01-30T21:28:01;20.27;;;11.20;;
38865;SDS011;62686;48.984;8.394;2024-01-30T21:30:38;20.85;;;10.80;;
38865;SDS011;62686;48.984;8.394;2024-01-30T21:33:09;17.58;;;10.43;;
38865;SDS011;62686;48.984;8.394;2024-01-30T21:35:39;20.70;;;10.30;;
38865;SDS011;62686;48.984;8.394;2024-01-30T21:38:08;22.52;;;11.27;;
38865;SDS011;62686;48.984;8.394;2024-01-30T21:40:44;23.13;;;11.30;;
38865;SDS011;62686;48.984;8.394;2024-01-30T21:43:13;18.77;;;10.23;;
38865;SDS011;62686;48.984;8.394;2024-01-30T21:45:54;20.80;;;10.98;;